createdAt,value
2019-02-02T00:00:09.795Z,101.53
2019-02-02T00:02:37.012Z,97.67
2019-02-02T00:05:04.969Z,67.50
2019-02-02T00:07:32.187Z,74.57
2019-02-02T00:09:59.403Z,73.17
2019-02-02T00:12:26.643Z,81.27
2019-02-02T00:14:54.239Z,82.53
2019-02-02T00:17:21.549Z,82.83
2019-02-02T00:19:48.777Z,70.37
2019-02-02T00:22:16.380Z,84.90
2019-02-02T00:24:43.595Z,74.97
2019-02-02T00:27:10.812Z,83.53
2019-02-02T00:29:38.021Z,80.33
2019-02-02T00:32:05.265Z,81.53
2019-02-02T00:34:32.480Z,88.70
2019-02-02T00:36:59.724Z,73.17
2019-02-02T00:39:26.948Z,76.93
2019-02-02T00:41:54.207Z,66.33
2019-02-02T00:44:21.525Z,76.53
2019-02-02T00:46:49.106Z,75.83
2019-02-02T00:49:16.968Z,74.93
2019-02-02T00:51:44.215Z,69.90
2019-02-02T00:54:11.443Z,84.57
2019-02-02T00:56:38.680Z,72.40
2019-02-02T00:59:06.022Z,72.67
2019-02-02T01:01:33.238Z,58.97
2019-02-02T01:04:00.489Z,65.17
2019-02-02T01:06:27.788Z,72.53
2019-02-02T01:08:55.061Z,84.90
2019-02-02T01:11:22.314Z,75.97
2019-02-02T01:13:49.551Z,70.30
2019-02-02T01:16:16.773Z,76.70
2019-02-02T01:18:44.020Z,84.63
2019-02-02T01:21:11.244Z,76.10
2019-02-02T01:23:38.490Z,78.83
2019-02-02T01:26:06.155Z,76.33
2019-02-02T01:28:33.399Z,76.53
2019-02-02T01:31:00.632Z,84.53
2019-02-02T01:33:27.894Z,94.63
2019-02-02T01:35:55.115Z,80.67
2019-02-02T01:38:22.360Z,82.03
2019-02-02T01:40:49.622Z,90.17
2019-02-02T01:43:16.928Z,70.47
2019-02-02T01:45:44.143Z,83.77
2019-02-02T01:48:11.385Z,72.87
2019-02-02T01:50:38.602Z,70.80
2019-02-02T01:53:05.839Z,65.63
2019-02-02T01:55:33.380Z,93.80
2019-02-02T01:58:00.616Z,75.50
2019-02-02T02:00:29.372Z,99.10
2019-02-02T02:02:56.615Z,87.30
2019-02-02T02:05:24.152Z,80.83
2019-02-02T02:07:51.730Z,87.13
2019-02-02T02:10:18.964Z,81.50
2019-02-02T02:12:46.312Z,83.13
2019-02-02T02:15:14.619Z,77.87
2019-02-02T02:17:42.067Z,66.70
2019-02-02T02:20:10.356Z,71.67
2019-02-02T02:22:41.250Z,72.67
2019-02-02T02:25:11.525Z,72.43
2019-02-02T02:27:39.043Z,71.50
2019-02-02T02:30:08.208Z,84.70
2019-02-02T02:32:35.457Z,83.50
2019-02-02T02:35:03.247Z,81.60
2019-02-02T02:37:30.573Z,76.43
2019-02-02T02:39:57.796Z,70.67
2019-02-02T02:42:25.009Z,81.00
2019-02-02T02:44:52.224Z,72.90
2019-02-02T02:47:19.456Z,80.30
2019-02-02T02:49:47.052Z,75.80
2019-02-02T02:52:14.264Z,71.13
2019-02-02T02:54:41.492Z,73.90
2019-02-02T02:57:08.624Z,94.07
2019-02-02T02:59:35.859Z,70.37
2019-02-02T03:02:03.378Z,75.97
2019-02-02T03:04:30.700Z,81.33
2019-02-02T03:06:57.954Z,90.13
2019-02-02T03:09:25.236Z,94.53
2019-02-02T03:11:52.451Z,95.83
2019-02-02T03:14:19.677Z,88.43
2019-02-02T03:16:46.893Z,94.70
2019-02-02T03:19:14.139Z,91.93
2019-02-02T03:21:43.711Z,128.03
2019-02-02T03:24:10.579Z,86.93
2019-02-02T03:26:37.797Z,80.40
2019-02-02T03:29:05.056Z,81.37
2019-02-02T03:31:32.369Z,109.37
2019-02-02T03:33:59.674Z,150.73
2019-02-02T03:36:26.875Z,107.30
2019-02-02T03:38:54.116Z,85.17
2019-02-02T03:41:21.329Z,97.63
2019-02-02T03:43:48.652Z,96.17
2019-02-02T03:46:15.865Z,157.03
2019-02-02T03:48:43.101Z,80.43
2019-02-02T03:51:10.315Z,91.73
2019-02-02T03:53:37.560Z,124.00
2019-02-02T03:56:04.780Z,100.03
2019-02-02T03:58:32.328Z,92.93
2019-02-02T04:00:59.556Z,88.77
2019-02-02T04:03:26.776Z,91.43
2019-02-02T04:05:53.995Z,78.73
2019-02-02T04:08:21.217Z,79.23
2019-02-02T04:10:48.444Z,86.43
2019-02-02T04:13:15.664Z,80.87
2019-02-02T04:15:42.989Z,91.90
2019-02-02T04:18:10.204Z,86.87
2019-02-02T04:20:37.426Z,81.03
2019-02-02T04:23:04.940Z,76.90
2019-02-02T04:25:32.161Z,80.73
2019-02-02T04:27:59.388Z,82.47
2019-02-02T04:30:26.823Z,95.77
2019-02-02T04:32:54.391Z,92.20
2019-02-02T04:35:21.611Z,95.67
2019-02-02T04:37:48.930Z,89.20
2019-02-02T04:40:16.348Z,96.60
2019-02-02T04:42:43.770Z,93.47
2019-02-02T04:45:11.731Z,91.30
2019-02-02T04:47:38.945Z,82.47
2019-02-02T04:50:08.080Z,85.97
2019-02-02T04:52:35.296Z,108.47
2019-02-02T04:55:02.864Z,97.90
2019-02-02T04:57:30.088Z,170.23
2019-02-02T04:59:57.353Z,119.30
2019-02-02T05:02:24.995Z,170.97
2019-02-02T05:04:52.245Z,121.67
2019-02-02T05:07:19.455Z,124.00
2019-02-02T05:09:46.955Z,118.23
2019-02-02T05:12:14.173Z,129.33
2019-02-02T05:14:41.411Z,162.53
2019-02-02T05:17:09.068Z,115.20
2019-02-02T05:19:36.303Z,92.10
2019-02-02T05:22:03.529Z,92.47
2019-02-02T05:24:30.749Z,106.43
2019-02-02T05:26:57.972Z,127.83
2019-02-02T05:29:25.203Z,89.40
2019-02-02T05:31:52.540Z,81.70
2019-02-02T05:34:19.764Z,76.13
2019-02-02T05:36:47.039Z,79.10
2019-02-02T05:39:14.340Z,74.03
2019-02-02T05:41:41.556Z,71.23
2019-02-02T05:44:08.772Z,107.80
2019-02-02T05:46:36.001Z,90.57
2019-02-02T05:49:03.411Z,151.87
2019-02-02T05:51:30.637Z,108.77
2019-02-02T05:53:58.204Z,102.27
2019-02-02T05:56:25.759Z,163.93
2019-02-02T05:58:52.983Z,139.33
2019-02-02T06:01:20.468Z,127.83
2019-02-02T06:03:47.691Z,135.30
2019-02-02T06:06:14.913Z,123.33
2019-02-02T06:08:42.455Z,252.67
2019-02-02T06:11:09.987Z,154.20
2019-02-02T06:13:37.213Z,107.53
2019-02-02T06:16:04.446Z,100.73
2019-02-02T06:18:31.663Z,92.63
2019-02-02T06:20:58.917Z,98.70
2019-02-02T06:23:26.451Z,113.30
2019-02-02T06:25:53.907Z,96.20
2019-02-02T06:28:21.592Z,86.37
2019-02-02T06:30:49.128Z,94.33
2019-02-02T06:33:16.344Z,78.77
2019-02-02T06:35:43.559Z,90.50
2019-02-02T06:38:11.111Z,103.07
2019-02-02T06:40:38.321Z,114.20
2019-02-02T06:43:05.541Z,138.30
2019-02-02T06:45:34.574Z,90.07
2019-02-02T06:48:01.911Z,105.50
2019-02-02T06:50:29.507Z,107.07
2019-02-02T06:52:57.220Z,91.37
2019-02-02T06:55:24.432Z,126.73
2019-02-02T06:57:51.705Z,82.07
2019-02-02T07:00:20.617Z,92.67
2019-02-02T07:02:48.424Z,76.37
2019-02-02T07:05:15.735Z,102.80
2019-02-02T07:07:43.227Z,75.63
2019-02-02T07:10:13.712Z,102.57
2019-02-02T07:12:41.048Z,78.23
2019-02-02T07:15:10.162Z,88.27
2019-02-02T07:17:37.375Z,88.30
2019-02-02T07:20:06.685Z,101.60
2019-02-02T07:22:33.900Z,96.23
2019-02-02T07:25:01.129Z,103.30
2019-02-02T07:27:28.615Z,72.80
2019-02-02T07:29:55.831Z,89.37
2019-02-02T07:32:23.049Z,80.13
2019-02-02T07:34:50.259Z,87.93
2019-02-02T07:37:17.475Z,85.90
2019-02-02T07:39:44.695Z,77.27
2019-02-02T07:42:11.911Z,102.17
2019-02-02T07:44:39.484Z,94.47
2019-02-02T07:47:09.225Z,84.73
2019-02-02T07:49:35.970Z,83.97
2019-02-02T07:52:03.185Z,90.97
2019-02-02T07:54:33.071Z,88.37
2019-02-02T07:56:59.861Z,84.73
2019-02-02T07:59:27.080Z,92.87
2019-02-02T08:01:55.405Z,93.63
2019-02-02T08:04:22.703Z,81.67
2019-02-02T08:06:49.927Z,84.47
2019-02-02T08:09:17.145Z,80.50
2019-02-02T08:11:44.680Z,58.63
2019-02-02T08:14:11.800Z,67.40
2019-02-02T08:16:39.024Z,72.70
2019-02-02T08:19:06.268Z,78.47
2019-02-02T08:21:33.486Z,70.37
2019-02-02T08:24:00.724Z,86.33
2019-02-02T08:26:27.976Z,73.47
2019-02-02T08:28:55.527Z,70.37
2019-02-02T08:31:22.898Z,88.57
2019-02-02T08:33:50.560Z,79.73
2019-02-02T08:36:17.807Z,70.27
2019-02-02T08:38:45.397Z,89.60
2019-02-02T08:41:13.059Z,72.93
2019-02-02T08:43:40.275Z,73.97
2019-02-02T08:46:07.527Z,79.17
2019-02-02T08:48:34.743Z,72.77
2019-02-02T08:51:01.988Z,75.63
2019-02-02T08:53:29.200Z,75.87
2019-02-02T08:55:56.441Z,91.67
2019-02-02T08:58:23.901Z,89.73
2019-02-02T09:01:03.432Z,86.43
2019-02-02T09:03:20.711Z,95.43
2019-02-02T09:05:50.802Z,109.57
2019-02-02T09:08:17.224Z,139.77
2019-02-02T09:10:44.761Z,121.00
2019-02-02T09:13:11.980Z,78.20
2019-02-02T09:15:39.218Z,146.23
2019-02-02T09:18:06.451Z,87.57
2019-02-02T09:20:33.703Z,73.70
2019-02-02T09:23:06.276Z,96.67
2019-02-02T09:25:30.063Z,74.40
2019-02-02T09:27:57.385Z,76.60
2019-02-02T09:30:26.969Z,71.97
2019-02-02T09:32:54.200Z,114.50
2019-02-02T09:35:21.524Z,92.83
2019-02-02T09:37:48.748Z,96.60
2019-02-02T09:40:17.084Z,86.03
2019-02-02T09:42:44.511Z,84.30
2019-02-02T09:45:13.431Z,65.40
2019-02-02T09:47:40.648Z,94.17
2019-02-02T09:50:10.667Z,58.17
2019-02-02T09:52:37.883Z,61.07
2019-02-02T09:55:07.148Z,55.80
2019-02-02T09:57:36.776Z,59.93
2019-02-02T10:00:05.881Z,54.80
2019-02-02T10:02:33.095Z,61.90
2019-02-02T10:05:00.700Z,53.67
2019-02-02T10:07:28.435Z,53.47
2019-02-02T10:09:55.659Z,51.70
2019-02-02T10:12:23.184Z,48.27
2019-02-02T10:14:50.436Z,57.93
2019-02-02T10:17:17.654Z,44.40
2019-02-02T10:19:45.223Z,58.83
2019-02-02T10:22:12.465Z,53.00
2019-02-02T10:24:40.061Z,52.20
2019-02-02T10:27:07.389Z,52.80
2019-02-02T10:29:34.637Z,57.10
2019-02-02T10:32:01.908Z,62.17
2019-02-02T10:34:29.167Z,58.73
2019-02-02T10:36:56.383Z,54.80
2019-02-02T10:39:23.599Z,50.20
2019-02-02T10:41:51.102Z,48.93
2019-02-02T10:44:18.312Z,51.83
2019-02-02T10:46:45.659Z,59.83
2019-02-02T10:49:13.252Z,52.33
2019-02-02T10:51:40.848Z,47.70
2019-02-02T10:54:08.071Z,51.27
2019-02-02T10:56:35.551Z,54.17
2019-02-02T10:59:02.772Z,57.30
2019-02-02T11:01:29.996Z,58.77
2019-02-02T11:03:57.217Z,58.67
2019-02-02T11:06:24.473Z,58.57
2019-02-02T11:08:51.773Z,61.33
2019-02-02T11:11:19.544Z,54.90
2019-02-02T11:13:47.340Z,54.30
2019-02-02T11:16:14.634Z,57.37
2019-02-02T11:18:41.848Z,48.33
2019-02-02T11:21:09.071Z,48.00
2019-02-02T11:23:36.447Z,48.00
2019-02-02T11:26:03.846Z,47.57
2019-02-02T11:28:31.166Z,44.33
2019-02-02T11:30:58.465Z,45.70
2019-02-02T11:33:25.684Z,45.50
2019-02-02T11:35:52.908Z,48.80
2019-02-02T11:38:20.137Z,46.17
2019-02-02T11:40:47.730Z,44.23
2019-02-02T11:43:14.945Z,46.63
2019-02-02T11:45:42.168Z,48.67
2019-02-02T11:48:09.383Z,39.87
2019-02-02T11:50:36.646Z,38.47
2019-02-02T11:53:03.872Z,40.20
2019-02-02T11:55:31.084Z,42.37
2019-02-02T11:57:58.313Z,40.23
2019-02-02T12:00:33.964Z,39.23
2019-02-02T12:03:04.189Z,38.47
2019-02-02T12:05:30.404Z,37.40
2019-02-02T12:07:57.619Z,34.13
2019-02-02T12:10:25.592Z,37.23
2019-02-02T12:12:52.806Z,37.03
2019-02-02T12:15:20.024Z,37.97
2019-02-02T12:17:47.274Z,41.57
2019-02-02T12:20:15.561Z,34.73
2019-02-02T12:22:42.783Z,36.60
2019-02-02T12:25:10.312Z,33.97
2019-02-02T12:27:37.593Z,38.53
2019-02-02T12:30:07.579Z,37.23
2019-02-02T12:32:35.157Z,39.40
2019-02-02T12:35:04.764Z,41.60
2019-02-02T12:37:32.236Z,36.37
2019-02-02T12:39:59.460Z,38.40
2019-02-02T12:42:26.722Z,37.33
2019-02-02T12:44:54.275Z,39.80
2019-02-02T12:47:21.535Z,43.83
2019-02-02T12:49:48.761Z,39.97
2019-02-02T12:52:16.020Z,41.00
2019-02-02T12:54:43.324Z,40.83
2019-02-02T12:57:10.595Z,42.03
2019-02-02T12:59:38.175Z,43.17
2019-02-02T13:02:05.588Z,42.00
2019-02-02T13:04:32.812Z,42.97
2019-02-02T13:07:00.067Z,42.27
2019-02-02T13:09:27.328Z,39.83
2019-02-02T13:11:56.158Z,37.67
2019-02-02T13:14:23.777Z,35.23
2019-02-02T13:16:51.118Z,35.87
2019-02-02T13:19:18.331Z,33.40
2019-02-02T13:21:45.604Z,34.70
2019-02-02T13:24:12.831Z,35.00
2019-02-02T13:26:40.083Z,34.90
2019-02-02T13:29:07.313Z,36.30
2019-02-02T13:31:34.604Z,29.17
2019-02-02T13:34:02.484Z,31.97
2019-02-02T13:36:29.743Z,33.90
2019-02-02T13:38:57.016Z,33.73
2019-02-02T13:41:24.319Z,31.77
2019-02-02T13:43:52.068Z,31.70
2019-02-02T13:46:19.279Z,31.57
2019-02-02T13:48:46.499Z,30.20
2019-02-02T13:51:13.717Z,31.40
2019-02-02T13:53:40.936Z,24.33
2019-02-02T13:56:08.153Z,26.53
2019-02-02T13:58:35.372Z,24.23
2019-02-02T14:01:02.591Z,26.00
2019-02-02T14:03:29.827Z,23.57
2019-02-02T14:05:57.049Z,22.63
2019-02-02T14:08:24.283Z,22.13
2019-02-02T14:10:51.504Z,25.33
2019-02-02T14:13:18.724Z,22.23
2019-02-02T14:15:46.055Z,26.07
2019-02-02T14:18:13.292Z,24.93
2019-02-02T14:20:40.518Z,25.07
2019-02-02T14:23:07.735Z,25.57
2019-02-02T14:25:35.284Z,27.13
2019-02-02T14:28:02.524Z,25.10
2019-02-02T14:30:29.847Z,25.67
2019-02-02T14:32:57.059Z,25.57
2019-02-02T14:35:25.683Z,22.97
2019-02-02T14:37:53.330Z,21.67
2019-02-02T14:40:20.616Z,23.90
2019-02-02T14:42:47.884Z,25.60
2019-02-02T14:45:17.935Z,26.07
2019-02-02T14:47:45.209Z,22.50
2019-02-02T14:50:14.616Z,28.10
2019-02-02T14:52:42.517Z,28.00
2019-02-02T14:55:11.885Z,28.23
2019-02-02T14:57:39.152Z,29.07
2019-02-02T15:00:10.375Z,29.67
2019-02-02T15:02:37.645Z,30.00
2019-02-02T15:05:05.467Z,31.37
2019-02-02T15:07:32.740Z,31.10
2019-02-02T15:09:59.963Z,31.77
2019-02-02T15:12:27.507Z,29.80
2019-02-02T15:14:54.628Z,30.67
2019-02-02T15:17:21.900Z,30.27
2019-02-02T15:19:49.124Z,31.23
2019-02-02T15:22:16.422Z,31.63
2019-02-02T15:24:43.986Z,35.13
2019-02-02T15:27:11.220Z,31.43
2019-02-02T15:29:38.440Z,32.57
2019-02-02T15:32:05.739Z,35.83
2019-02-02T15:34:32.852Z,35.37
2019-02-02T15:37:00.064Z,36.23
2019-02-02T15:39:27.584Z,35.47
2019-02-02T15:41:54.805Z,36.53
2019-02-02T15:44:22.111Z,39.40
2019-02-02T15:46:49.468Z,37.73
2019-02-02T15:49:16.763Z,31.73
2019-02-02T15:51:43.980Z,37.20
2019-02-02T15:54:11.256Z,40.57
2019-02-02T15:56:38.473Z,39.40
2019-02-02T15:59:05.753Z,39.43
2019-02-02T16:01:33.347Z,44.13
2019-02-02T16:04:00.882Z,46.37
2019-02-02T16:06:28.104Z,44.80
2019-02-02T16:08:55.728Z,43.50
2019-02-02T16:11:23.280Z,44.87
2019-02-02T16:13:50.548Z,44.77
2019-02-02T16:16:17.767Z,55.67
2019-02-02T16:18:45.033Z,60.37
2019-02-02T16:21:12.607Z,60.10
2019-02-02T16:23:39.872Z,55.10
2019-02-02T16:26:07.089Z,65.27
2019-02-02T16:28:34.359Z,66.57
2019-02-02T16:31:01.576Z,67.43
2019-02-02T16:33:28.839Z,72.33
2019-02-02T16:35:56.050Z,69.10
2019-02-02T16:38:23.332Z,70.00
2019-02-02T16:40:50.935Z,63.43
2019-02-02T16:43:18.245Z,71.57
2019-02-02T16:45:45.736Z,62.93
2019-02-02T16:48:12.953Z,68.97
2019-02-02T16:50:40.167Z,70.63
2019-02-02T16:53:07.394Z,71.63
2019-02-02T16:55:34.612Z,75.10
2019-02-02T16:58:02.193Z,75.23
2019-02-02T17:00:30.940Z,71.57
2019-02-02T17:02:58.339Z,63.30
2019-02-02T17:05:25.725Z,55.37
2019-02-02T17:07:52.957Z,64.57
2019-02-02T17:10:22.247Z,69.07
2019-02-02T17:12:49.467Z,67.43
2019-02-02T17:15:17.368Z,78.77
2019-02-02T17:17:44.615Z,79.20
2019-02-02T17:20:14.439Z,59.67
2019-02-02T17:22:41.693Z,68.23
2019-02-02T17:25:11.771Z,90.93
2019-02-02T17:27:39.059Z,64.90
2019-02-02T17:30:09.323Z,66.77
2019-02-02T17:32:36.841Z,57.27
2019-02-02T17:35:04.913Z,68.47
2019-02-02T17:37:32.237Z,63.90
2019-02-02T17:39:59.531Z,82.17
2019-02-02T17:42:26.777Z,72.53
2019-02-02T17:44:54.160Z,77.27
2019-02-02T17:47:21.412Z,83.10
2019-02-02T17:49:48.695Z,80.97
2019-02-02T17:52:15.920Z,71.90
2019-02-02T17:54:43.216Z,82.23
2019-02-02T17:57:10.457Z,80.50
2019-02-02T17:59:37.732Z,60.40
2019-02-02T18:02:05.511Z,92.60
2019-02-02T18:04:39.515Z,77.10
2019-02-02T18:07:02.874Z,65.93
2019-02-02T18:09:30.257Z,68.80
2019-02-02T18:11:57.496Z,58.13
2019-02-02T18:14:25.080Z,63.20
2019-02-02T18:16:52.311Z,69.00
2019-02-02T18:19:19.553Z,62.77
2019-02-02T18:21:46.783Z,84.47
2019-02-02T18:24:14.443Z,92.43
2019-02-02T18:26:41.679Z,83.47
2019-02-02T18:29:09.152Z,100.10
2019-02-02T18:31:36.711Z,122.93
2019-02-02T18:34:04.165Z,67.73
2019-02-02T18:36:31.942Z,75.10
2019-02-02T18:38:59.493Z,74.93
2019-02-02T18:41:27.067Z,79.00
2019-02-02T18:43:54.608Z,85.20
2019-02-02T18:46:21.839Z,74.77
2019-02-02T18:48:49.455Z,70.70
2019-02-02T18:51:16.981Z,67.07
2019-02-02T18:53:44.239Z,88.00
2019-02-02T18:56:13.896Z,87.30
2019-02-02T18:58:41.123Z,84.27
2019-02-02T19:01:08.351Z,70.07
2019-02-02T19:03:35.637Z,70.87
2019-02-02T19:06:03.133Z,57.33
2019-02-02T19:08:30.360Z,72.23
2019-02-02T19:10:58.032Z,81.53
2019-02-02T19:13:25.268Z,61.10
2019-02-02T19:15:52.684Z,56.80
2019-02-02T19:18:19.916Z,70.57
2019-02-02T19:20:47.192Z,67.97
2019-02-02T19:23:24.642Z,84.80
2019-02-02T19:25:43.631Z,78.97
2019-02-02T19:28:10.911Z,72.90
2019-02-02T19:30:38.275Z,93.80
2019-02-02T19:33:05.984Z,121.83
2019-02-02T19:35:33.265Z,108.03
2019-02-02T19:38:00.496Z,110.33
2019-02-02T19:40:27.771Z,103.00
2019-02-02T19:42:55.021Z,92.83
2019-02-02T19:45:23.340Z,83.47
2019-02-02T19:47:50.727Z,73.97
2019-02-02T19:50:20.742Z,69.40
2019-02-02T19:52:48.036Z,85.57
2019-02-02T19:55:15.357Z,89.77
2019-02-02T19:57:42.615Z,86.67
2019-02-02T20:00:16.055Z,89.70
2019-02-02T20:02:43.284Z,110.23
2019-02-02T20:05:10.514Z,100.47
2019-02-02T20:07:37.759Z,137.23
2019-02-02T20:10:06.392Z,80.30
2019-02-02T20:12:33.627Z,72.47
2019-02-02T20:15:00.856Z,74.97
2019-02-02T20:17:28.133Z,62.90
2019-02-02T20:19:55.359Z,69.23
2019-02-02T20:22:22.592Z,73.77
2019-02-02T20:24:49.823Z,78.37
2019-02-02T20:27:17.414Z,91.53
2019-02-02T20:29:44.649Z,87.93
2019-02-02T20:32:11.901Z,73.97
2019-02-02T20:34:39.148Z,102.83
2019-02-02T20:37:06.955Z,77.77
2019-02-02T20:39:34.190Z,71.43
2019-02-02T20:42:01.420Z,74.37
2019-02-02T20:44:28.675Z,73.97
2019-02-02T20:46:56.019Z,70.63
2019-02-02T20:49:23.732Z,75.97
2019-02-02T20:51:50.970Z,69.23
2019-02-02T20:54:19.119Z,77.00
2019-02-02T20:56:46.899Z,53.60
2019-02-02T20:59:14.223Z,50.83
2019-02-02T21:01:41.459Z,56.23
2019-02-02T21:04:08.792Z,45.43
2019-02-02T21:06:36.176Z,41.17
2019-02-02T21:09:05.663Z,53.83
2019-02-02T21:11:32.943Z,63.67
2019-02-02T21:14:00.183Z,62.37
2019-02-02T21:16:27.459Z,50.87
2019-02-02T21:18:54.687Z,55.97
2019-02-02T21:21:21.973Z,48.77
2019-02-02T21:23:49.420Z,53.47
2019-02-02T21:26:16.892Z,54.13
2019-02-02T21:28:50.501Z,57.53
2019-02-02T21:31:14.258Z,66.47
2019-02-02T21:33:41.600Z,68.93
2019-02-02T21:36:08.836Z,62.73
2019-02-02T21:38:36.075Z,52.00
2019-02-02T21:41:05.060Z,51.17
2019-02-02T21:43:32.343Z,40.70
2019-02-02T21:45:59.667Z,42.47
2019-02-02T21:48:27.269Z,39.37
2019-02-02T21:50:54.603Z,37.30
2019-02-02T21:53:21.884Z,37.50
2019-02-02T21:55:49.533Z,38.83
2019-02-02T21:58:16.909Z,36.83
2019-02-02T22:00:44.234Z,37.33
2019-02-02T22:03:11.617Z,34.93
2019-02-02T22:05:38.949Z,35.87
2019-02-02T22:08:07.453Z,35.77
2019-02-02T22:10:34.793Z,37.33
2019-02-02T22:13:02.373Z,39.33
2019-02-02T22:15:30.243Z,38.07
2019-02-02T22:17:57.630Z,34.60
2019-02-02T22:20:25.358Z,33.63
2019-02-02T22:22:53.108Z,32.00
2019-02-02T22:25:24.710Z,32.53
2019-02-02T22:27:52.346Z,35.13
2019-02-02T22:30:22.015Z,36.70
2019-02-02T22:32:49.448Z,34.90
2019-02-02T22:35:17.036Z,35.70
2019-02-02T22:37:44.340Z,36.13
2019-02-02T22:40:13.948Z,34.23
2019-02-02T22:42:41.524Z,37.30
2019-02-02T22:45:12.907Z,30.37
2019-02-02T22:47:40.261Z,31.27
2019-02-02T22:50:09.265Z,28.80
2019-02-02T22:52:36.840Z,34.33
2019-02-02T22:55:04.837Z,28.13
2019-02-02T22:57:32.476Z,29.57
2019-02-02T23:00:00.333Z,26.40
2019-02-02T23:02:27.619Z,30.87
2019-02-02T23:05:15.456Z,26.10
2019-02-02T23:08:04.937Z,25.60
2019-02-02T23:10:58.596Z,22.23
2019-02-02T23:14:13.155Z,20.70
2019-02-02T23:16:40.396Z,20.60
2019-02-02T23:19:07.873Z,19.90
2019-02-02T23:21:35.195Z,19.93
2019-02-02T23:24:02.342Z,17.80
2019-02-02T23:26:29.675Z,17.73
2019-02-02T23:28:56.934Z,18.27
2019-02-02T23:31:24.460Z,18.97
2019-02-02T23:33:51.815Z,22.00
2019-02-02T23:36:19.039Z,18.67
2019-02-02T23:38:46.299Z,17.80
2019-02-02T23:41:13.899Z,19.27
2019-02-02T23:43:41.505Z,18.30
2019-02-02T23:46:09.123Z,19.23
2019-02-02T23:48:36.380Z,19.60
2019-02-02T23:51:04.291Z,19.83
2019-02-02T23:53:31.550Z,19.97
2019-02-02T23:55:58.876Z,19.10
2019-02-02T23:58:26.505Z,20.93
